KCHA/CHA METAR and TAF weather

Enter ICAO airport designator
Station Type Date Time Source
KCHA METAR 2020/11/27 01:53 UTC NOAA

KCHA 270153Z 00000KT 10SM CLR 11/08 A3010 RMK AO2 SLP192 T01060078 $


Station Type Date Time Source
KCHA Decoded METAR 2020/11/27 01:53 UTC NOAA

LOVELL FIELD, TN, United States (KCHA) 35-02N 085-12W 210M
Nov 26, 2020 - 08:53 PM EST / 2020.11.27 0153 UTC
Wind: Calm:0
Visibility: 10 mile(s):0
Sky conditions: clear
Temperature: 51.1 F (10.6 C)
Dew Point: 46.0 F (7.8 C)
Relative Humidity: 82%
Pressure (altimeter): 30.1 in. Hg (1019 hPa)
ob: KCHA 270153Z 00000KT 10SM CLR 11/08 A3010 RMK AO2 SLP192 T01060078
cycle: 2

Station Type Date Time Source
KCHA TAF 2020/11/26 18:28 UTC NOAA

TAF KCHA 261726Z 2618/2718 25006KT P6SM SCT035
FM262300 00000KT P6SM SKC
FM271000 00000KT 3SM BR SCT002
FM271300 VRB03KT P6SM SCT250

Example: see airport list